• Join FlightAware (Why Join?)
  • Login
  • US Flag 
10:32AM EDT


 

Airport Tracker/Info


-or-


 

Live Flight TrackerFlight Track Log ✈ DAL1981 ✈ 30-Jun-2013 ✈ KSMF - KMSP

Flight Track Log - Related Links

Times and Time Zones

All times are in EDT time to prevent confusion due to time zone crossing. See the DAL1981 flight status page for this flight to view local times or setup timezone preferences in your user account.

Time Position Orientation Groundspeed Altitude Reporting Facility
EDT Latitude Longitude Course Direction KTS MPH feet Rate Location/Type
03:48PM 38.6556 -121.5697 78° East 172 198 1,600  Level Oakland Center
03:49PM 38.6214 -121.5089 126° Southeast 210 242 2,300 1,440 Climbing Oakland Center
03:50PM 38.4938 -121.2767 80° East  Level FlightAware Approximate
03:50PM 38.6022 -121.4106 104° East 273 314 4,600  Level Oakland Center
03:51PM 38.5282 -121.1258 76° East  Level FlightAware Approximate
03:51PM 38.6122 -121.3083 83° East 292 336 7,200  Level Oakland Center
03:52PM 38.5574 -120.9725 78° East  Level FlightAware Approximate
03:52PM 38.6228 -121.2064 82° East 298 343 9,500  Level Oakland Center
03:53PM 38.5832 -120.8181 78° East  Level FlightAware Approximate
03:53PM 38.6325 -121.0922 84° East 311 358 10,900  Level Oakland Center
03:54PM 38.6747 -120.9717 66° East 380 437 12,100 1,560 Climbing Oakland Center
03:55PM 38.7428 -120.8647 51° Northeast 390 449 14,200 1,920 Climbing Oakland Center
03:56PM 38.7931 -120.7378 63° Northeast 400 460 16,100 1,680 Climbing Oakland Center
03:57PM 38.8397 -120.6064 65° Northeast 406 467 17,700 1,500 Climbing Oakland Center
03:58PM 38.8889 -120.4706 65° Northeast 418 481 19,300 1,440 Climbing Oakland Center
03:59PM 38.9486 -120.3022 65° Northeast 434 499 20,700 1,260 Climbing Oakland Center
04:00PM 39.0003 -120.1572 65° Northeast 445 512 21,900 1,260 Climbing Oakland Center
04:01PM 39.0475 -120.0214 66° East 457 526 23,300 1,260 Climbing Oakland Center
04:02PM 39.1003 -119.8717 66° East 459 528 24,600 1,140 Climbing Oakland Center
04:03PM 39.1547 -119.7186 65° Northeast 469 540 25,700 1,020 Climbing Oakland Center
04:04PM 39.2206 -119.5317 66° East 477 549 26,800 1,020 Climbing Oakland Center
04:05PM 39.2736 -119.3739 66° East 479 551 27,800 840 Climbing Oakland Center
04:06PM 39.3286 -119.2142 66° East 485 558 28,600 1,020 Climbing Oakland Center
04:07PM 39.3858 -119.0447 66° East 486 559 29,900 1,200 Climbing Oakland Center
04:08PM 39.4400 -118.8875 66° East 479 551 31,100 1,080 Climbing Oakland Center
04:09PM 39.4978 -118.7328 64° Northeast 486 559 32,200 900 Climbing Oakland Center
04:10PM 39.5478 -118.5714 68° East 478 550 33,000 360 Climbing Oakland Center
04:11PM 39.5983 -118.4147 67° East 470 541 33,000  Level Oakland Center
04:12PM 39.6503 -118.2594 66° East 468 539 33,000  Level Oakland Center
04:13PM 39.7000 -118.1047 67° East 465 535 33,000  Level Oakland Center
04:14PM 39.7508 -117.9508 67° East 463 533 33,000  Level Oakland Center
04:15PM 39.8014 -117.7964 67° East 463 533 33,000  Level Oakland Center
04:16PM 39.8542 -117.6342 67° East 465 535 33,000  Level Oakland Center
04:17PM 39.9094 -117.4583 68° East 469 540 33,000  Level Oakland Center
04:18PM 39.9578 -117.3108 67° East 466 536 33,000  Level Salt Lake Center
04:19PM 40.0056 -117.1628 67° East 465 535 33,000  Level Salt Lake Center
04:20PM 40.0522 -117.0136 68° East 466 536 33,000  Level Salt Lake Center
04:21PM 40.1067 -116.8414 67° East 465 535 33,000  Level Salt Lake Center
04:22PM 40.1608 -116.6683 68° East 465 535 33,000  Level Salt Lake Center
04:23PM 40.2069 -116.5197 68° East 465 535 33,000  Level Salt Lake Center
04:24PM 40.2614 -116.3469 68° East 464 534 33,000  Level Salt Lake Center
04:25PM 40.3072 -116.1989 68° East 461 531 33,000  Level Salt Lake Center
04:28PM 40.4072 -115.8714 68° East 469 540 33,000  Level Salt Lake Center
04:29PM 40.4547 -115.7222 67° East 467 537 33,000  Level Salt Lake Center
04:30PM 40.5053 -115.5444 69° East 465 535 33,000  Level Salt Lake Center
04:31PM 40.5500 -115.3933 69° East 466 536 33,000  Level Salt Lake Center
04:32PM 40.6031 -115.2156 68° East 468 539 33,000  Level Salt Lake Center
04:34PM 40.7050 -114.8867 68° East 467 537 33,000  Level Salt Lake Center
04:35PM 40.7494 -114.7314 69° East 461 531 33,000  Level Salt Lake Center
04:36PM 40.7989 -114.5600 69° East 460 529 33,000  Level Salt Lake Center
04:37PM 40.8386 -114.4183 70° East 456 525 33,000  Level Salt Lake Center
04:38PM 40.8842 -114.2611 69° East 457 526 33,000  Level Salt Lake Center
04:39PM 40.9375 -114.0733 69° East 456 525 33,000  Level Salt Lake Center
04:40PM 40.9811 -113.9158 70° East 456 525 33,000  Level Salt Lake Center
04:41PM 41.0253 -113.7589 69° East 456 525 33,000  Level Salt Lake Center
04:42PM 41.0686 -113.6025 70° East 454 522 33,000  Level Salt Lake Center
04:43PM 41.1114 -113.4461 70° East 452 520 33,000  Level Salt Lake Center
04:44PM 41.1539 -113.2872 70° East 455 524 33,000  Level Salt Lake Center
04:45PM 41.1972 -113.1297 70° East 455 524 33,000 180 Level Salt Lake Center
04:46PM 41.2881 -112.9683 53° Northeast 453 521 33,400 600 Climbing Salt Lake Center
04:47PM 41.3706 -112.8383 50° Northeast 457 526 34,300 840 Climbing Salt Lake Center
04:48PM 41.4181 -112.6831 68° East 453 521 35,200 720 Climbing Salt Lake Center
04:49PM 41.4597 -112.5242 71° East 453 521 35,900 660 Climbing Salt Lake Center
04:50PM 41.5011 -112.3653 71° East 452 520 36,600 480 Climbing Salt Lake Center
04:51PM 41.5411 -112.2072 71° East 449 517 37,000 180 Climbing Salt Lake Center
04:52PM 41.5817 -112.0489 71° East 449 517 37,000  Level Salt Lake Center
04:53PM 41.6211 -111.8894 72° East 449 517 37,000  Level Salt Lake Center
04:54PM 41.6361 -111.6864 84° East 456 525 37,000  Level Salt Lake Center
04:55PM 41.6483 -111.5186 84° East 453 521 37,000  Level Salt Lake Center
04:56PM 41.6603 -111.3511 84° East 451 519 37,000  Level Salt Lake Center
04:57PM 41.6733 -111.1825 84° East 455 524 37,000  Level Salt Lake Center
04:58PM 41.6847 -111.0136 85° East 455 524 37,000  Level Salt Lake Center
04:59PM 41.6958 -110.8403 85° East 453 521 37,000  Level Salt Lake Center
05:01PM 41.7036 -110.6514 87° East 455 524 37,000  Level Salt Lake Center
05:02PM 41.7094 -110.4886 87° East 457 526 37,000  Level Salt Lake Center
05:03PM 41.7172 -110.3003 87° East 456 525 37,000  Level Salt Lake Center
05:04PM 41.7219 -110.1392 88° East 454 522 37,000  Level Salt Lake Center
05:05PM 41.7286 -109.9758 87° East 458 527 37,000  Level Salt Lake Center
05:06PM 41.7347 -109.7869 87° East 455 524 37,000  Level Salt Lake Center
05:07PM 41.7403 -109.6244 87° East 454 522 37,000  Level Salt Lake Center
05:08PM 41.7469 -109.4344 87° East 454 522 37,000  Level Salt Lake Center
05:09PM 41.7511 -109.2708 88° East 456 525 37,000  Level Salt Lake Center
05:10PM 41.7564 -109.1064 87° East 457 526 37,000  Level Salt Lake Center
05:11PM 41.7606 -108.9136 88° East 459 528 37,000  Level Salt Lake Center
05:12PM 41.7833 -108.7553 79° East 457 526 37,000  Level Salt Lake Center
05:13PM 41.8306 -108.5833 70° East 443 510 37,000  Level Salt Lake Center
05:14PM 41.8703 -108.4339 70° East 444 511 37,000  Level Salt Lake Center
05:15PM 41.9169 -108.2550 71° East 453 521 37,000  Level Salt Lake Center
05:16PM 41.9561 -108.1022 71° East 454 522 37,000  Level Salt Lake Center
05:17PM 41.9956 -107.9458 71° East 461 531 37,000  Level Salt Lake Center
05:18PM 42.0422 -107.7656 71° East 459 528 37,000  Level Salt Lake Center
05:19PM 42.0825 -107.6119 70° East 457 526 37,000  Level Salt Lake Center
05:20PM 42.1283 -107.4322 71° East 456 525 37,000  Level Salt Lake Center
05:21PM 42.1678 -107.2792 71° East 455 524 37,000  Level Salt Lake Center
05:22PM 42.2142 -107.0975 71° East 459 528 37,000  Level Salt Lake Center
05:23PM 42.2525 -106.9411 72° East 460 529 37,000  Level Salt Lake Center
05:24PM 42.2969 -106.7583 72° East 461 531 37,000  Level Salt Lake Center
05:26PM 42.3542 -106.5208 72° East 462 532 37,000  Level Denver Center
05:27PM 42.3933 -106.3600 72° East 464 534 37,000  Level Denver Center
05:28PM 42.4375 -106.1756 72° East 463 533 37,000  Level Denver Center
05:29PM 42.4744 -106.0175 72° East 460 529 37,000  Level Denver Center
05:30PM 42.5178 -105.8325 72° East 461 531 37,000  Level Denver Center
05:31PM 42.5539 -105.6742 73° East 461 531 37,000  Level Denver Center
05:32PM 42.5981 -105.4886 72° East 462 532 37,000  Level Denver Center
05:33PM 42.6339 -105.3286 73° East 462 532 37,000  Level Denver Center
05:34PM 42.6778 -105.1414 72° East 464 534 37,000  Level Denver Center
05:35PM 42.7150 -104.9806 72° East 464 534 37,000  Level Denver Center
05:36PM 42.7519 -104.8169 73° East 467 537 37,000  Level Denver Center
05:37PM 42.7956 -104.6247 73° East 469 540 37,000  Level Denver Center
05:38PM 42.8319 -104.4589 73° East 470 541 37,000  Level Denver Center
05:39PM 42.8736 -104.2686 73° East 467 537 37,000  Level Denver Center
05:40PM 42.9092 -104.1069 73° East 466 536 37,000  Level Denver Center
05:41PM 42.9442 -103.9442 74° East 466 536 37,000  Level Denver Center
05:42PM 42.9856 -103.7531 73° East 470 541 37,000  Level Denver Center
05:43PM 43.0206 -103.5900 74° East 468 539 37,000  Level Denver Center
05:44PM 43.0594 -103.3994 74° East 467 537 37,000  Level Denver Center
05:45PM 43.0942 -103.2375 74° East 464 534 37,000  Level Denver Center
05:46PM 43.1333 -103.0464 74° East 468 539 37,000  Level Denver Center
05:47PM 43.1678 -102.8842 74° East 466 536 37,000  Level Denver Center
05:48PM 43.2061 -102.6933 75° East 464 534 37,000  Level Denver Center
05:49PM 43.2386 -102.5311 75° East 462 532 37,000  Level Denver Center
05:51PM 43.2714 -102.3689 74° East 461 531 37,000  Level Denver Center
05:52PM 43.3094 -102.1800 74° East 462 532 37,000  Level Denver Center
05:53PM 43.3403 -102.0233 75° East 462 532 37,000  Level Denver Center
05:54PM 43.3797 -101.8186 75° East 462 532 37,000  Level Denver Center
05:55PM 43.4131 -101.6475 75° East 463 533 37,000  Level Denver Center
05:56PM 43.4464 -101.4778 75° East 460 529 37,000  Level Denver Center
05:57PM 43.4781 -101.3069 76° East 462 532 37,000  Level Denver Center
05:58PM 43.5106 -101.1372 75° East 459 528 37,000  Level Denver Center
05:58PM 43.5292 -101.0367 76° East 460 529 37,000  Level Minneapolis Center
05:59PM 43.5553 -100.9008 75° East 459 528 37,000  Level Minneapolis Center
06:00PM 43.6008 -100.6583 75° East 466 536 37,000  Level Minneapolis Center
06:01PM 43.6308 -100.4875 76° East 464 534 37,000  Level Minneapolis Center
06:03PM 43.6625 -100.3156 76° East 463 533 37,000  Level Minneapolis Center
06:04PM 43.6997 -100.1097 76° East 463 533 37,000  Level Minneapolis Center
06:05PM 43.7289 -99.9406 77° East 458 527 37,000  Level Minneapolis Center
06:06PM 43.7589 -99.7694 76° East 459 528 37,000  Level Minneapolis Center
06:07PM 43.7950 -99.5631 76° East 460 529 37,000  Level Minneapolis Center
06:08PM 43.8244 -99.3917 77° East 461 531 37,000  Level Minneapolis Center
06:09PM 43.8539 -99.2200 77° East 460 529 37,000  Level Minneapolis Center
06:10PM 43.8822 -99.0486 77° East 458 527 37,000  Level Minneapolis Center
06:11PM 43.9122 -98.8753 76° East 463 533 37,000  Level Minneapolis Center
06:12PM 43.9447 -98.6711 77° East 463 533 37,000  Level Minneapolis Center
06:13PM 43.9733 -98.4969 77° East 463 533 37,000  Level Minneapolis Center
06:14PM 44.0014 -98.3206 77° East 467 537 37,000  Level Minneapolis Center
06:15PM 44.0300 -98.1444 77° East 469 540 37,000  Level Minneapolis Center
06:16PM 44.0625 -97.9342 78° East 465 535 37,000  Level Minneapolis Center
06:17PM 44.0958 -97.7256 77° East 462 532 37,000  Level Minneapolis Center
06:18PM 44.1228 -97.5525 78° East 460 529 37,000  Level Minneapolis Center
06:19PM 44.1486 -97.3808 78° East 455 524 37,000  Level Minneapolis Center
06:20PM 44.1744 -97.2097 78° East 453 521 37,000  Level Minneapolis Center
06:21PM 44.1994 -97.0383 78° East 452 520 37,000  Level Minneapolis Center
06:23PM 44.2203 -96.9019 78° East 451 519 37,000  Level Minneapolis Center
06:24PM 44.2553 -96.6611 78° East 453 521 37,000  Level Minneapolis Center
06:25PM 44.2806 -96.4894 78° East 451 519 37,000 -240 Level Minneapolis Center
06:26PM 44.3058 -96.3164 78° East 450 518 36,600 -660 Descending Minneapolis Center
06:27PM 44.3314 -96.1425 78° East 444 511 35,700 -1,020 Descending Minneapolis Center
06:28PM 44.3714 -95.9889 70° East 423 487 34,600 -1,140 Descending Minneapolis Center
06:29PM 44.4569 -95.9064 35° Northeast 379 436 33,400 -1,080 Descending Minneapolis Center
06:30PM 44.5228 -95.7883 52° Northeast 394 453 32,400 -1,020 Descending Minneapolis Center
06:31PM 44.5253 -95.6289 89° East 409 471 31,400 -1,020 Descending Minneapolis Center
06:32PM 44.5069 -95.4592 99° East 434 499 30,300 -1,800 Descending Minneapolis Center
06:33PM 44.4811 -95.2536 100° East 443 510 27,800 -2,220 Descending Minneapolis Center
06:34PM 44.4728 -95.0958 94° East 419 482 25,800 -2,040 Descending Minneapolis Center
06:35PM 44.5100 -94.9556 70° East 389 448 23,700 -2,040 Descending Minneapolis Center
06:36PM 44.5414 -94.8172 72° East 377 434 21,600 -2,040 Descending Minneapolis Center
06:37PM 44.5728 -94.6853 71° East 365 420 19,600 -2,040 Descending Minneapolis Center
06:38PM 44.6053 -94.5431 72° East 353 406 17,500 -2,040 Descending Minneapolis Center
06:39PM 44.6336 -94.4169 72° East 340 391 15,500 -2,040 Descending Minneapolis Center
06:40PM 44.6619 -94.2950 72° East 331 381 13,400 -1,860 Descending Minneapolis Center
06:41PM 44.6894 -94.1744 72° East 325 374 11,300 -1,080 Descending Minneapolis Center
06:42PM 44.7264 -94.0061 73° East 322 371 11,000 -240 Descending Minneapolis Center
06:43PM 44.7533 -93.8856 72° East 323 372 10,900 -60 Descending Minneapolis Center
06:44PM 44.7803 -93.7656 72° East 323 372 10,900 -360 Level Minneapolis Center
06:45PM 44.8050 -93.6544 73° East 295 339 10,200 -1,140 Descending Minneapolis Center
06:47PM 44.8283 -93.5483 73° East 281 323 8,600 -1,140 Descending Minneapolis Center
06:48PM 44.8508 -93.4461 73° East 274 315 7,900 -360 Descending Minneapolis Center
06:49PM 44.8333 -93.3436 104° East 288 331 7,900  Level Minneapolis Center
06:50PM 44.7825 -93.2400 125° Southeast 254 292 7,900  Level Minneapolis Center
06:51PM 44.7422 -93.1567 124° Southeast 244 281 7,900 -300 Level Minneapolis Center
06:52PM 44.7036 -93.0783 125° Southeast 242 278 7,300 -1,080 Descending Minneapolis Center
06:53PM 44.7031 -93.0011 91° East 229 264 5,700 -1,320 Descending Minneapolis Center
06:54PM 44.7564 -93.0256 342° North 209 241 4,600 -1,080 Descending Minneapolis Center